createdAt,value
2019-02-23T00:01:25.535Z,211.17
2019-02-23T00:04:08.354Z,213.93
2019-02-23T00:06:54.623Z,196.23
2019-02-23T00:09:35.506Z,214.00
2019-02-23T00:12:31.216Z,228.80
2019-02-23T00:15:13.080Z,210.07
2019-02-23T00:18:02.772Z,206.20
2019-02-23T00:20:50.073Z,199.87
2019-02-23T00:23:37.135Z,208.77
2019-02-23T00:26:27.385Z,219.33
2019-02-23T00:29:17.325Z,193.83
2019-02-23T00:31:59.209Z,212.50
2019-02-23T00:34:45.211Z,224.43
2019-02-23T00:37:29.410Z,203.57
2019-02-23T00:40:11.193Z,223.77
2019-02-23T00:42:55.860Z,448.77
2019-02-23T00:45:45.283Z,309.10
2019-02-23T00:48:28.376Z,266.00
2019-02-23T00:51:08.096Z,229.47
2019-02-23T00:53:53.850Z,241.13
2019-02-23T00:56:35.986Z,212.73
2019-02-23T00:59:20.475Z,216.37
2019-02-23T01:02:06.300Z,201.70
2019-02-23T01:04:54.906Z,208.97
2019-02-23T01:07:38.657Z,201.67
2019-02-23T01:10:19.772Z,215.93
2019-02-23T01:13:07.988Z,212.30
2019-02-23T01:16:12.332Z,215.30
2019-02-23T01:19:13.605Z,225.97
2019-02-23T01:21:54.251Z,216.13
2019-02-23T01:24:47.382Z,214.90
2019-02-23T01:27:28.725Z,217.07
2019-02-23T01:30:13.954Z,206.27
2019-02-23T01:33:03.403Z,245.30
2019-02-23T01:36:06.050Z,235.07
2019-02-23T01:38:50.027Z,213.17
2019-02-23T01:41:36.587Z,207.73
2019-02-23T01:44:16.811Z,201.53
2019-02-23T01:47:03.593Z,199.23
2019-02-23T01:50:08.537Z,208.17
2019-02-23T01:52:53.068Z,232.37
2019-02-23T01:55:39.116Z,244.47
2019-02-23T01:58:37.701Z,224.63
2019-02-23T02:01:25.392Z,224.37
2019-02-23T02:04:13.042Z,200.57
2019-02-23T02:06:56.978Z,219.27
2019-02-23T02:09:39.606Z,281.03
2019-02-23T02:12:21.874Z,286.17
2019-02-23T02:15:24.680Z,232.07
2019-02-23T02:18:25.986Z,242.47
2019-02-23T02:21:13.829Z,218.03
2019-02-23T02:23:57.021Z,240.33
2019-02-23T02:26:38.519Z,229.30
2019-02-23T02:29:21.781Z,241.43
2019-02-23T02:32:04.395Z,237.03
2019-02-23T02:34:50.844Z,232.50
2019-02-23T02:37:35.447Z,220.07
2019-02-23T02:40:18.990Z,226.97
2019-02-23T02:43:07.003Z,236.63
2019-02-23T02:45:54.939Z,221.93
2019-02-23T02:48:43.770Z,212.07
2019-02-23T02:51:36.970Z,215.27
2019-02-23T02:54:20.197Z,232.47
2019-02-23T02:57:01.961Z,215.70
2019-02-23T02:59:57.517Z,217.27
2019-02-23T03:02:56.581Z,208.03
2019-02-23T03:05:37.621Z,240.77
2019-02-23T03:08:30.451Z,225.37
2019-02-23T03:11:16.517Z,208.07
2019-02-23T03:14:19.644Z,219.33
2019-02-23T03:17:06.993Z,213.63
2019-02-23T03:19:53.157Z,232.27
2019-02-23T03:22:35.831Z,237.70
2019-02-23T03:25:29.132Z,520.80
2019-02-23T03:28:23.556Z,328.67
2019-02-23T03:31:10.471Z,247.70
2019-02-23T03:33:54.215Z,231.83
2019-02-23T03:36:39.320Z,225.60
2019-02-23T03:39:39.923Z,238.23
2019-02-23T03:45:48.580Z,239.70
2019-02-23T03:48:41.868Z,254.33
2019-02-23T03:51:27.273Z,254.77
2019-02-23T03:54:11.834Z,253.70
2019-02-23T03:57:05.701Z,265.17
2019-02-23T03:59:51.256Z,241.73
2019-02-23T04:02:39.306Z,223.77
2019-02-23T04:05:29.399Z,301.63
2019-02-23T04:08:15.389Z,319.03
2019-02-23T04:11:19.215Z,304.57
2019-02-23T04:14:04.501Z,286.43
2019-02-23T04:16:47.719Z,227.07
2019-02-23T04:19:36.379Z,221.87
2019-02-23T04:22:19.443Z,304.30
2019-02-23T04:25:10.715Z,379.97
2019-02-23T04:28:16.193Z,329.33
2019-02-23T04:31:06.089Z,271.47
2019-02-23T04:33:58.970Z,310.97
2019-02-23T04:36:48.926Z,251.20
2019-02-23T04:39:34.163Z,262.30
2019-02-23T04:42:29.133Z,262.07
2019-02-23T04:45:30.098Z,230.00
2019-02-23T04:48:21.784Z,234.20
2019-02-23T04:51:14.663Z,248.33
2019-02-23T04:54:03.965Z,248.00
2019-02-23T04:57:03.857Z,257.97
2019-02-23T05:00:05.194Z,307.70
2019-02-23T05:02:59.213Z,275.13
2019-02-23T05:05:58.932Z,253.93
2019-02-23T05:08:47.355Z,275.50
2019-02-23T05:11:44.176Z,247.93
2019-02-23T05:14:39.955Z,232.73
2019-02-23T05:17:27.781Z,229.27
2019-02-23T05:20:27.285Z,206.37
2019-02-23T05:23:16.812Z,210.47
2019-02-23T05:26:16.523Z,215.83
2019-02-23T05:29:11.820Z,204.13
2019-02-23T05:32:10.689Z,284.60
2019-02-23T05:35:04.112Z,241.83
2019-02-23T05:37:49.278Z,213.63
2019-02-23T05:40:52.152Z,214.20
2019-02-23T05:43:35.458Z,236.07
2019-02-23T05:46:52.304Z,212.83
2019-02-23T05:49:42.663Z,202.33
2019-02-23T05:52:38.606Z,334.83
2019-02-23T05:55:33.685Z,241.97
2019-02-23T05:58:30.244Z,202.90
2019-02-23T06:01:15.216Z,190.00
2019-02-23T06:04:06.096Z,238.13
2019-02-23T06:06:52.993Z,272.00
2019-02-23T06:09:42.400Z,224.00
2019-02-23T06:12:44.065Z,198.60
2019-02-23T06:15:45.177Z,211.67
2019-02-23T06:18:42.505Z,213.33
2019-02-23T06:22:03.916Z,225.33
2019-02-23T06:24:57.279Z,253.03
2019-02-23T06:27:55.002Z,233.00
2019-02-23T06:30:53.590Z,226.30
2019-02-23T06:33:44.043Z,222.57
2019-02-23T06:36:35.647Z,209.17
2019-02-23T06:39:28.973Z,216.80
2019-02-23T06:42:27.409Z,217.30
2019-02-23T06:45:26.661Z,205.20
2019-02-23T06:48:22.119Z,204.73
2019-02-23T06:51:21.523Z,194.87
2019-02-23T06:54:12.689Z,196.77
2019-02-23T06:57:01.213Z,167.70
2019-02-23T06:59:56.869Z,146.27
2019-02-23T07:02:53.708Z,115.13
2019-02-23T07:05:54.655Z,103.77
2019-02-23T07:08:46.461Z,106.63
2019-02-23T07:11:48.609Z,93.83
2019-02-23T07:14:53.972Z,88.10
2019-02-23T07:17:37.108Z,86.03
2019-02-23T07:20:44.562Z,92.70
2019-02-23T07:23:33.930Z,89.47
2019-02-23T07:26:35.348Z,87.50
2019-02-23T07:29:34.195Z,89.73
2019-02-23T07:32:28.112Z,86.80
2019-02-23T07:35:31.193Z,90.47
2019-02-23T07:38:31.961Z,82.97
2019-02-23T07:41:24.686Z,93.07
2019-02-23T07:44:36.039Z,91.67
2019-02-23T07:47:51.272Z,89.60
2019-02-23T07:50:54.088Z,97.57
2019-02-23T07:53:58.723Z,91.33
2019-02-23T07:56:53.462Z,96.43
2019-02-23T07:59:42.390Z,94.70
2019-02-23T08:02:54.239Z,98.33
2019-02-23T08:05:39.722Z,98.90
2019-02-23T08:08:42.592Z,94.87
2019-02-23T08:11:36.654Z,99.37
2019-02-23T08:14:30.940Z,100.50
2019-02-23T08:17:16.172Z,93.60
2019-02-23T08:20:18.795Z,102.27
2019-02-23T08:23:05.776Z,101.20
2019-02-23T08:26:12.466Z,88.37
2019-02-23T08:29:12.338Z,86.07
2019-02-23T08:32:07.381Z,97.73
2019-02-23T08:35:09.317Z,97.23
2019-02-23T08:38:07.193Z,84.70
2019-02-23T08:40:52.047Z,293.10
2019-02-23T08:43:59.127Z,470.93
2019-02-23T08:46:42.336Z,374.13
2019-02-23T08:49:32.893Z,171.77
2019-02-23T08:52:17.686Z,112.73
2019-02-23T08:55:18.575Z,108.73
2019-02-23T08:58:10.543Z,89.80
2019-02-23T09:01:05.064Z,125.23
2019-02-23T09:04:04.411Z,103.03
2019-02-23T09:07:22.931Z,99.33
2019-02-23T09:10:36.468Z,94.33
2019-02-23T09:13:24.230Z,103.77
2019-02-23T09:16:26.481Z,99.77
2019-02-23T09:19:30.866Z,93.27
2019-02-23T09:22:18.816Z,98.60
2019-02-23T09:25:12.617Z,95.60
2019-02-23T09:28:11.039Z,101.87
2019-02-23T09:31:03.584Z,92.43
2019-02-23T09:33:52.713Z,104.97
2019-02-23T09:36:48.381Z,114.70
2019-02-23T09:39:44.085Z,99.17
2019-02-23T09:42:36.584Z,100.03
2019-02-23T09:45:23.967Z,105.17
2019-02-23T09:48:12.309Z,97.17
2019-02-23T09:51:04.913Z,89.03
2019-02-23T09:53:59.062Z,98.70
2019-02-23T09:56:44.133Z,133.20
2019-02-23T09:59:32.194Z,106.20
2019-02-23T10:02:13.577Z,100.43
2019-02-23T10:05:04.354Z,102.90
2019-02-23T10:08:02.989Z,93.30
2019-02-23T10:10:51.111Z,115.27
2019-02-23T10:13:36.238Z,106.70
2019-02-23T10:16:22.484Z,98.47
2019-02-23T10:19:07.241Z,114.60
2019-02-23T10:21:52.880Z,164.33
2019-02-23T10:24:37.899Z,143.60
2019-02-23T10:27:33.105Z,186.53
2019-02-23T10:30:25.290Z,173.80
2019-02-23T10:33:12.272Z,201.93
2019-02-23T10:35:55.842Z,206.20
2019-02-23T10:38:43.360Z,177.63
2019-02-23T10:41:25.558Z,159.90
2019-02-23T10:44:31.347Z,139.17
2019-02-23T10:47:25.299Z,151.83
2019-02-23T10:50:11.686Z,197.27
2019-02-23T10:53:04.918Z,138.87
2019-02-23T10:55:58.020Z,144.07
2019-02-23T10:58:42.771Z,124.60
2019-02-23T11:01:39.584Z,115.47
2019-02-23T11:04:26.888Z,129.47
2019-02-23T11:07:15.027Z,167.83
2019-02-23T11:10:03.760Z,141.37
2019-02-23T11:13:12.465Z,140.47
2019-02-23T11:16:01.710Z,151.43
2019-02-23T11:18:50.179Z,134.23
2019-02-23T11:21:51.757Z,144.10
2019-02-23T11:24:39.360Z,171.03
2019-02-23T11:27:44.255Z,127.83
2019-02-23T11:30:37.913Z,138.07
2019-02-23T11:33:31.856Z,142.13
2019-02-23T11:36:23.029Z,224.77
2019-02-23T11:39:11.830Z,215.67
2019-02-23T11:42:04.340Z,132.33
2019-02-23T11:45:08.166Z,210.10
2019-02-23T11:48:04.078Z,208.47
2019-02-23T11:50:49.762Z,262.67
2019-02-23T11:53:37.988Z,193.63
2019-02-23T11:59:53.205Z,135.23
2019-02-23T12:02:39.432Z,136.37
2019-02-23T12:05:26.537Z,157.33
2019-02-23T12:08:27.671Z,138.17
2019-02-23T12:11:23.216Z,124.90
2019-02-23T12:14:06.579Z,136.13
2019-02-23T12:17:28.368Z,120.10
2019-02-23T12:20:51.411Z,110.00
2019-02-23T12:23:35.681Z,109.10
2019-02-23T12:26:55.292Z,121.13
2019-02-23T12:30:05.653Z,129.43
2019-02-23T12:33:02.045Z,129.73
2019-02-23T12:35:56.775Z,145.20
2019-02-23T12:39:03.429Z,131.97
2019-02-23T12:42:21.000Z,127.70
2019-02-23T12:45:35.032Z,179.17
2019-02-23T12:48:44.736Z,220.83
2019-02-23T12:52:11.899Z,139.37
2019-02-23T12:55:18.218Z,115.33
2019-02-23T12:58:28.196Z,261.53
2019-02-23T13:01:27.663Z,139.37
2019-02-23T13:04:35.296Z,120.00
2019-02-23T13:07:24.303Z,122.40
2019-02-23T13:11:01.156Z,106.93
2019-02-23T13:18:40.678Z,124.73
2019-02-23T13:22:03.756Z,105.87
2019-02-23T13:25:29.786Z,110.77
2019-02-23T13:28:52.191Z,117.70
2019-02-23T13:32:20.579Z,113.70
2019-02-23T13:35:50.857Z,122.67
2019-02-23T13:39:32.180Z,189.23
2019-02-23T13:43:14.725Z,143.30
2019-02-23T13:46:32.414Z,141.53
2019-02-23T13:50:24.344Z,119.23
2019-02-23T13:53:53.656Z,116.07
2019-02-23T13:57:04.778Z,111.17
2019-02-23T14:00:53.103Z,114.00
2019-02-23T14:04:31.246Z,109.93
2019-02-23T14:08:19.847Z,114.83
2019-02-23T14:11:57.203Z,103.30
2019-02-23T14:15:33.782Z,105.10
2019-02-23T14:19:20.007Z,116.83
2019-02-23T14:23:02.292Z,116.77
2019-02-23T14:26:47.920Z,132.57
2019-02-23T14:30:10.181Z,127.27
2019-02-23T14:33:39.871Z,126.17
2019-02-23T14:44:50.893Z,128.20
2019-02-23T14:48:35.827Z,126.53
2019-02-23T14:52:02.869Z,134.27
2019-02-23T14:55:51.686Z,132.33
2019-02-23T14:59:36.796Z,135.10
2019-02-23T15:03:29.866Z,146.90
2019-02-23T15:06:40.962Z,123.10
2019-02-23T15:13:48.957Z,232.33
2019-02-23T15:17:12.213Z,137.83
2019-02-23T15:20:43.612Z,122.53
2019-02-23T15:24:07.178Z,121.03
2019-02-23T15:27:29.112Z,114.63
2019-02-23T15:30:46.409Z,120.17
2019-02-23T15:34:19.348Z,110.33
2019-02-23T15:37:53.142Z,114.73
2019-02-23T15:41:26.949Z,450.83
2019-02-23T15:45:15.633Z,150.93
2019-02-23T15:48:50.428Z,109.23
2019-02-23T15:52:16.678Z,102.10
2019-02-23T15:55:33.034Z,94.63
2019-02-23T15:58:59.194Z,93.57
2019-02-23T16:02:24.144Z,98.50
2019-02-23T16:09:35.061Z,90.60
2019-02-23T16:12:51.136Z,84.77
2019-02-23T16:15:53.240Z,92.57
2019-02-23T16:19:18.650Z,90.77
2019-02-23T16:22:09.194Z,84.43
2019-02-23T16:25:10.583Z,89.97
2019-02-23T16:31:54.232Z,94.37
2019-02-23T16:34:58.347Z,89.07
2019-02-23T16:38:04.899Z,86.50
2019-02-23T16:41:04.089Z,84.27
2019-02-23T16:43:55.319Z,90.80
2019-02-23T16:47:13.584Z,87.33
2019-02-23T16:50:27.676Z,91.07
2019-02-23T16:53:48.591Z,86.77
2019-02-23T16:56:50.708Z,80.50
2019-02-23T16:59:57.571Z,87.03
2019-02-23T17:02:40.587Z,89.90
2019-02-23T17:05:54.435Z,95.33
2019-02-23T17:08:45.014Z,89.13
2019-02-23T17:11:47.037Z,91.93
2019-02-23T17:14:54.540Z,102.03
2019-02-23T17:17:43.178Z,93.63
2019-02-23T17:20:35.636Z,95.60
2019-02-23T17:23:30.901Z,89.87
2019-02-23T17:26:30.224Z,93.63
2019-02-23T17:29:36.435Z,373.60
2019-02-23T17:32:41.049Z,125.63
2019-02-23T17:35:30.924Z,105.47
2019-02-23T17:38:26.432Z,103.53
2019-02-23T17:41:25.088Z,97.67
2019-02-23T17:44:02.660Z,105.13
2019-02-23T17:49:37.672Z,100.13
2019-02-23T17:52:22.056Z,104.80
2019-02-23T17:55:06.559Z,99.93
2019-02-23T17:57:57.952Z,93.67
2019-02-23T18:00:44.911Z,104.63
2019-02-23T18:03:31.538Z,92.40
2019-02-23T18:06:18.972Z,99.53
2019-02-23T18:09:02.058Z,94.53
2019-02-23T18:11:43.184Z,93.50
2019-02-23T18:14:31.763Z,114.93
2019-02-23T18:17:15.001Z,98.47
2019-02-23T18:19:55.586Z,103.50
2019-02-23T18:22:43.195Z,101.20
2019-02-23T18:25:31.975Z,104.87
2019-02-23T18:28:16.101Z,101.23
2019-02-23T18:30:59.779Z,96.23
2019-02-23T18:33:39.474Z,96.67
2019-02-23T18:36:22.858Z,97.70
2019-02-23T18:39:05.104Z,98.30
2019-02-23T18:41:51.977Z,103.00
2019-02-23T18:44:56.448Z,98.83
2019-02-23T18:47:37.364Z,97.53
2019-02-23T18:50:16.559Z,101.87
2019-02-23T18:53:04.743Z,96.83
2019-02-23T18:55:50.907Z,107.77
2019-02-23T18:58:44.359Z,108.20
2019-02-23T19:01:28.991Z,99.33
2019-02-23T19:04:12.335Z,107.47
2019-02-23T19:06:59.392Z,104.40
2019-02-23T19:09:39.340Z,110.83
2019-02-23T19:12:21.880Z,112.03
2019-02-23T19:15:06.173Z,107.53
2019-02-23T19:17:46.888Z,107.43
2019-02-23T19:20:36.650Z,105.03
2019-02-23T19:23:15.569Z,112.10
2019-02-23T19:25:58.572Z,99.10
2019-02-23T19:28:43.397Z,99.30
2019-02-23T19:31:26.601Z,99.67
2019-02-23T19:34:14.889Z,97.70
2019-02-23T19:37:03.158Z,97.17
2019-02-23T19:39:47.076Z,105.80
2019-02-23T19:42:28.949Z,96.53
2019-02-23T19:45:13.301Z,97.10
2019-02-23T19:47:58.142Z,99.73
2019-02-23T19:50:46.852Z,98.03
2019-02-23T19:53:27.056Z,90.67
2019-02-23T19:56:10.865Z,97.83
2019-02-23T19:58:56.645Z,97.13
2019-02-23T20:01:39.714Z,91.60
2019-02-23T20:04:25.363Z,99.07
2019-02-23T20:07:07.566Z,92.47
2019-02-23T20:09:52.391Z,109.87
2019-02-23T20:12:35.773Z,105.63
2019-02-23T20:15:14.602Z,99.13
2019-02-23T20:17:54.580Z,96.07
2019-02-23T20:20:40.407Z,105.17
2019-02-23T20:23:24.898Z,97.97
2019-02-23T20:26:06.596Z,101.70
2019-02-23T20:28:51.457Z,95.77
2019-02-23T20:31:32.542Z,103.37
2019-02-23T20:34:12.791Z,102.80
2019-02-23T20:36:57.051Z,103.27
2019-02-23T20:39:37.916Z,96.33
2019-02-23T20:42:21.438Z,104.83
2019-02-23T20:45:03.393Z,102.60
2019-02-23T20:47:44.703Z,97.37
2019-02-23T20:50:27.470Z,108.20
2019-02-23T20:53:10.575Z,100.73
2019-02-23T20:55:55.136Z,107.90
2019-02-23T20:58:35.912Z,102.13
2019-02-23T21:01:19.235Z,106.70
2019-02-23T21:03:59.620Z,104.77
2019-02-23T21:06:39.305Z,115.33
2019-02-23T21:09:23.316Z,113.93
2019-02-23T21:12:07.096Z,112.17
2019-02-23T21:14:52.611Z,111.73
2019-02-23T21:17:32.928Z,108.17
2019-02-23T21:20:13.757Z,120.00
2019-02-23T21:22:57.196Z,117.37
2019-02-23T21:25:44.148Z,123.07
2019-02-23T21:28:25.850Z,125.50
2019-02-23T21:31:06.536Z,128.87
2019-02-23T21:33:52.913Z,120.83
2019-02-23T21:36:36.141Z,140.37
2019-02-23T21:39:17.301Z,131.70
2019-02-23T21:41:59.283Z,147.13
2019-02-23T21:44:42.601Z,139.50
2019-02-23T21:47:25.722Z,152.40
2019-02-23T21:50:11.186Z,153.87
2019-02-23T21:52:49.375Z,152.53
2019-02-23T21:55:32.170Z,145.27
2019-02-23T21:58:12.458Z,133.67
2019-02-23T22:00:56.928Z,150.87
2019-02-23T22:03:47.583Z,138.37
2019-02-23T22:06:29.396Z,141.20
2019-02-23T22:09:09.256Z,138.77
2019-02-23T22:11:52.025Z,123.57
2019-02-23T22:14:32.860Z,128.70
2019-02-23T22:17:18.125Z,134.47
2019-02-23T22:20:03.045Z,132.20
2019-02-23T22:22:47.688Z,129.80
2019-02-23T22:25:27.266Z,122.67
2019-02-23T22:28:08.051Z,127.80
2019-02-23T22:30:51.400Z,125.77
2019-02-23T22:33:31.489Z,140.17
2019-02-23T22:36:13.604Z,126.70
2019-02-23T22:38:57.851Z,125.20
2019-02-23T22:41:35.938Z,125.33
2019-02-23T22:44:18.380Z,130.83
2019-02-23T22:47:01.386Z,125.33
2019-02-23T22:49:42.622Z,121.07
2019-02-23T22:52:23.824Z,130.10
2019-02-23T22:55:03.945Z,135.80
2019-02-23T22:57:47.256Z,127.70
2019-02-23T23:00:36.971Z,130.47
2019-02-23T23:03:21.783Z,131.00
2019-02-23T23:06:09.013Z,128.53
2019-02-23T23:08:54.184Z,125.77
2019-02-23T23:11:37.879Z,116.57
2019-02-23T23:14:21.717Z,126.60
2019-02-23T23:17:06.549Z,124.43
2019-02-23T23:19:50.810Z,120.63
2019-02-23T23:22:30.747Z,121.80
2019-02-23T23:25:10.544Z,122.00
2019-02-23T23:27:53.960Z,120.40
2019-02-23T23:30:32.724Z,122.17
2019-02-23T23:33:12.134Z,123.90
2019-02-23T23:35:53.740Z,119.97
2019-02-23T23:38:33.048Z,127.37
2019-02-23T23:41:13.988Z,113.80
2019-02-23T23:44:07.687Z,125.77
2019-02-23T23:46:50.160Z,120.70
2019-02-23T23:49:30.416Z,116.37
2019-02-23T23:52:16.983Z,116.17
2019-02-23T23:55:05.926Z,116.77
2019-02-23T23:57:48.322Z,117.37
